TimeEST,TemperatureF,Dew PointF,Humidity,Sea Level PressureIn,VisibilityMPH,Wind Direction,Wind SpeedMPH,Gust SpeedMPH,PrecipitationIn,Events,Conditions,WindDirDegrees,DateUTC
12:15 AM,24.6,22.6,92,30.53,10.0,Calm,Calm,-,N/A,,Clear,0,2013-01-11 05:15:00
12:35 AM,22.8,21.0,93,30.53,10.0,SE,3.5,-,N/A,,Clear,130,2013-01-11 05:35:00
12:55 AM,23.2,21.2,92,30.52,10.0,Calm,Calm,-,N/A,,Clear,0,2013-01-11 05:55:00
1:15 AM,24.6,23.0,94,30.53,10.0,SE,3.5,-,N/A,,Clear,130,2013-01-11 06:15:00
1:35 AM,22.1,20.3,93,30.52,10.0,East,3.5,-,N/A,,Clear,100,2013-01-11 06:35:00
1:55 AM,23.2,21.0,91,30.52,10.0,Calm,Calm,-,N/A,,Clear,0,2013-01-11 06:55:00
2:15 AM,24.6,22.6,92,30.51,10.0,Calm,Calm,-,N/A,,Clear,0,2013-01-11 07:15:00
2:35 AM,23.7,21.4,91,30.50,10.0,ESE,3.5,-,N/A,,Clear,120,2013-01-11 07:35:00
2:55 AM,24.6,22.1,90,30.50,10.0,Calm,Calm,-,N/A,,Clear,0,2013-01-11 07:55:00
3:15 AM,24.6,21.9,89,30.48,10.0,East,3.5,-,N/A,,Clear,100,2013-01-11 08:15:00
3:35 AM,24.6,21.7,89,30.47,10.0,ESE,5.8,-,N/A,,Clear,110,2013-01-11 08:35:00
3:55 AM,24.6,21.2,87,30.46,10.0,ESE,3.5,-,N/A,,Clear,120,2013-01-11 08:55:00
4:15 AM,24.6,21.6,88,30.46,10.0,ESE,3.5,-,N/A,,Clear,120,2013-01-11 09:15:00
4:35 AM,24.6,21.4,87,30.44,10.0,ESE,4.6,-,N/A,,Clear,110,2013-01-11 09:35:00
4:55 AM,24.6,20.8,86,30.44,10.0,ESE,5.8,-,N/A,,Clear,110,2013-01-11 09:55:00
5:15 AM,24.6,20.3,84,30.44,10.0,ESE,4.6,-,N/A,,Clear,110,2013-01-11 10:15:00
5:35 AM,24.6,20.3,84,30.44,10.0,SE,4.6,-,N/A,,Clear,130,2013-01-11 10:35:00
5:55 AM,24.6,19.8,82,30.45,10.0,ESE,4.6,-,N/A,,Clear,120,2013-01-11 10:55:00
6:15 AM,24.6,19.4,81,30.44,10.0,East,8.1,-,N/A,,Clear,100,2013-01-11 11:15:00
6:35 AM,24.6,19.0,79,30.43,10.0,ESE,8.1,-,N/A,,Clear,110,2013-01-11 11:35:00
6:55 AM,24.6,19.2,80,30.43,10.0,ESE,5.8,-,N/A,,Clear,110,2013-01-11 11:55:00
7:15 AM,24.3,19.2,81,30.43,10.0,ESE,3.5,-,N/A,,Clear,120,2013-01-11 12:15:00
7:35 AM,24.3,19.2,81,30.42,10.0,East,4.6,-,N/A,,Clear,100,2013-01-11 12:35:00
7:55 AM,24.6,19.9,82,30.41,10.0,ESE,6.9,-,N/A,,Clear,110,2013-01-11 12:55:00
8:15 AM,24.6,19.4,81,30.41,10.0,ESE,4.6,-,N/A,,Clear,120,2013-01-11 13:15:00
8:35 AM,25.5,20.3,81,30.40,10.0,Calm,Calm,-,N/A,,Clear,0,2013-01-11 13:35:00
8:55 AM,27.1,21.2,78,30.38,10.0,East,4.6,-,N/A,,Clear,100,2013-01-11 13:55:00
9:15 AM,27.1,20.8,77,30.36,10.0,East,6.9,-,N/A,,Clear,100,2013-01-11 14:15:00
9:35 AM,27.1,20.3,75,30.35,10.0,East,5.8,-,N/A,,Clear,100,2013-01-11 14:35:00
9:55 AM,27.3,19.9,74,30.35,10.0,SE,5.8,-,N/A,,Clear,130,2013-01-11 14:55:00
10:15 AM,29.5,21.4,72,30.33,10.0,ESE,4.6,-,N/A,,Clear,120,2013-01-11 15:15:00
10:35 AM,32.0,22.8,69,30.31,10.0,ESE,4.6,-,N/A,,Clear,120,2013-01-11 15:35:00
10:55 AM,32.0,22.6,68,30.29,10.0,SE,3.5,-,N/A,,Clear,130,2013-01-11 15:55:00
11:15 AM,32.0,21.7,66,30.27,10.0,SE,4.6,-,N/A,,Clear,130,2013-01-11 16:15:00
11:35 AM,32.4,21.6,64,30.26,10.0,Calm,Calm,-,N/A,,Scattered Clouds,0,2013-01-11 16:35:00
11:55 AM,33.6,22.8,65,30.25,10.0,SSE,3.5,-,N/A,,Clear,160,2013-01-11 16:55:00
12:15 PM,34.3,23.4,64,30.24,10.0,SSE,3.5,-,N/A,,Clear,150,2013-01-11 17:15:00
12:55 PM,36.9,19.2,49,30.22,10.0,SSE,8.1,-,N/A,,Overcast,160,2013-01-11 17:55:00
1:15 PM,38.3,18.0,44,30.22,10.0,South,8.1,16.1,N/A,,Overcast,180,2013-01-11 18:15:00
1:35 PM,36.9,20.3,51,30.22,10.0,South,5.8,-,N/A,Rain,Light Rain,190,2013-01-11 18:35:00
1:55 PM,36.9,23.7,59,30.20,10.0,South,6.9,-,N/A,,Overcast,170,2013-01-11 18:55:00
2:15 PM,36.9,23.5,59,30.18,10.0,South,5.8,-,N/A,,Overcast,180,2013-01-11 19:15:00
2:35 PM,36.9,22.6,56,30.16,10.0,SSE,6.9,-,N/A,,Overcast,160,2013-01-11 19:35:00
2:55 PM,38.3,20.7,49,30.15,10.0,South,5.8,-,N/A,,Light Drizzle,170,2013-01-11 19:55:00
3:15 PM,37.9,20.7,50,30.14,10.0,South,5.8,-,N/A,,Overcast,170,2013-01-11 20:15:00
3:35 PM,38.3,19.4,47,30.13,10.0,South,10.4,16.1,N/A,,Overcast,170,2013-01-11 20:35:00
3:55 PM,37.6,19.6,48,30.12,10.0,South,6.9,-,N/A,,Overcast,170,2013-01-11 20:55:00
4:15 PM,36.9,23.0,57,30.10,10.0,SE,8.1,-,N/A,,Overcast,140,2013-01-11 21:15:00
4:35 PM,36.9,21.7,54,30.11,10.0,SSE,10.4,-,N/A,,Overcast,160,2013-01-11 21:35:00
4:55 PM,37.0,20.1,50,30.10,10.0,South,11.5,23.0,N/A,,Overcast,170,2013-01-11 21:55:00
5:15 PM,36.9,21.6,54,30.10,10.0,South,18.4,26.5,N/A,,Overcast,170,2013-01-11 22:15:00
5:35 PM,36.9,22.8,57,30.09,10.0,South,10.4,21.9,N/A,,Overcast,180,2013-01-11 22:35:00
5:55 PM,36.9,22.5,56,30.09,10.0,South,17.3,23.0,N/A,,Overcast,170,2013-01-11 22:55:00
6:15 PM,36.9,23.0,57,30.08,10.0,South,15.0,27.6,N/A,,Overcast,180,2013-01-11 23:15:00
6:35 PM,36.9,24.1,60,30.08,10.0,South,16.1,23.0,N/A,,Overcast,170,2013-01-11 23:35:00
6:55 PM,37.4,25.2,61,30.08,10.0,South,13.8,20.7,N/A,,Overcast,170,2013-01-11 23:55:00
7:15 PM,37.6,25.9,63,30.08,10.0,South,13.8,25.3,N/A,,Overcast,190,2013-01-12 00:15:00
7:35 PM,38.1,26.8,64,30.07,10.0,South,11.5,24.2,N/A,,Overcast,170,2013-01-12 00:35:00
7:55 PM,38.3,28.2,67,30.06,10.0,South,15.0,20.7,N/A,,Overcast,170,2013-01-12 00:55:00
8:15 PM,38.3,29.3,70,30.06,10.0,South,13.8,25.3,N/A,,Overcast,190,2013-01-12 01:15:00
8:35 PM,38.3,30.2,73,30.06,10.0,South,12.7,20.7,N/A,,Overcast,180,2013-01-12 01:35:00
8:55 PM,37.0,31.1,79,30.06,10.0,South,13.8,25.3,N/A,,Overcast,180,2013-01-12 01:55:00
9:15 PM,36.9,32.2,83,30.06,10.0,South,12.7,20.7,N/A,,Overcast,180,2013-01-12 02:15:00
9:35 PM,36.9,32.0,83,30.06,10.0,South,11.5,18.4,N/A,,Overcast,180,2013-01-12 02:35:00
9:55 PM,37.0,32.0,82,30.06,10.0,South,6.9,21.9,N/A,,Overcast,180,2013-01-12 02:55:00
10:15 PM,37.6,32.0,80,30.07,10.0,South,9.2,20.7,N/A,,Overcast,180,2013-01-12 03:15:00
10:35 PM,37.0,32.0,82,30.07,10.0,South,9.2,-,N/A,,Overcast,190,2013-01-12 03:35:00
10:55 PM,36.9,32.2,83,30.04,10.0,South,9.2,16.1,N/A,,Overcast,170,2013-01-12 03:55:00
11:15 PM,38.1,32.9,81,30.04,10.0,South,6.9,-,N/A,,Overcast,180,2013-01-12 04:15:00
11:35 PM,38.3,32.9,81,30.04,10.0,South,9.2,16.1,N/A,,Overcast,180,2013-01-12 04:35:00
11:55 PM,38.3,32.9,81,30.04,10.0,South,11.5,19.6,N/A,,Overcast,180,2013-01-12 04:55:00